sensor_id;sensor_type;location;lat;lon;timestamp;P1;durP1;ratioP1;P2;durP2;ratioP2
3769;SDS011;1900;48.890;9.190;2023-07-20T00:01:53;5.83;;;2.50;;
3769;SDS011;1900;48.890;9.190;2023-07-20T00:04:19;6.60;;;2.53;;
3769;SDS011;1900;48.890;9.190;2023-07-20T00:06:45;5.73;;;2.40;;
3769;SDS011;1900;48.890;9.190;2023-07-20T00:09:11;5.90;;;2.20;;
3769;SDS011;1900;48.890;9.190;2023-07-20T00:11:37;2.90;;;2.50;;
3769;SDS011;1900;48.890;9.190;2023-07-20T00:14:04;6.30;;;2.63;;
3769;SDS011;1900;48.890;9.190;2023-07-20T00:16:30;3.53;;;2.03;;
3769;SDS011;1900;48.890;9.190;2023-07-20T00:18:56;3.67;;;2.23;;
3769;SDS011;1900;48.890;9.190;2023-07-20T00:21:22;3.30;;;2.43;;
3769;SDS011;1900;48.890;9.190;2023-07-20T00:23:47;4.23;;;2.60;;
3769;SDS011;1900;48.890;9.190;2023-07-20T00:26:13;9.30;;;2.83;;
3769;SDS011;1900;48.890;9.190;2023-07-20T00:28:39;4.57;;;2.47;;
3769;SDS011;1900;48.890;9.190;2023-07-20T00:31:04;4.23;;;2.30;;
3769;SDS011;1900;48.890;9.190;2023-07-20T00:33:30;4.33;;;2.27;;
3769;SDS011;1900;48.890;9.190;2023-07-20T00:35:57;2.63;;;2.00;;
3769;SDS011;1900;48.890;9.190;2023-07-20T00:38:23;4.80;;;2.90;;
3769;SDS011;1900;48.890;9.190;2023-07-20T00:40:49;5.40;;;2.60;;
3769;SDS011;1900;48.890;9.190;2023-07-20T00:43:16;4.07;;;2.30;;
3769;SDS011;1900;48.890;9.190;2023-07-20T00:45:42;5.27;;;2.50;;
3769;SDS011;1900;48.890;9.190;2023-07-20T00:48:09;5.03;;;2.50;;
3769;SDS011;1900;48.890;9.190;2023-07-20T00:50:35;5.47;;;3.17;;
3769;SDS011;1900;48.890;9.190;2023-07-20T00:53:02;4.93;;;2.27;;
3769;SDS011;1900;48.890;9.190;2023-07-20T00:55:31;6.23;;;2.40;;
3769;SDS011;1900;48.890;9.190;2023-07-20T00:57:57;3.63;;;2.47;;
3769;SDS011;1900;48.890;9.190;2023-07-20T01:00:24;5.57;;;2.27;;
3769;SDS011;1900;48.890;9.190;2023-07-20T01:02:50;3.57;;;2.73;;
3769;SDS011;1900;48.890;9.190;2023-07-20T01:05:17;11.50;;;3.40;;
3769;SDS011;1900;48.890;9.190;2023-07-20T01:07:48;3.43;;;2.03;;
3769;SDS011;1900;48.890;9.190;2023-07-20T01:10:29;4.30;;;1.97;;
3769;SDS011;1900;48.890;9.190;2023-07-20T01:13:00;3.10;;;2.10;;
3769;SDS011;1900;48.890;9.190;2023-07-20T01:15:26;2.50;;;2.07;;
3769;SDS011;1900;48.890;9.190;2023-07-20T01:17:52;3.30;;;2.10;;
3769;SDS011;1900;48.890;9.190;2023-07-20T01:20:20;4.17;;;2.57;;
3769;SDS011;1900;48.890;9.190;2023-07-20T01:33:25;8.03;;;2.00;;
3769;SDS011;1900;48.890;9.190;2023-07-20T01:35:54;7.57;;;2.47;;
3769;SDS011;1900;48.890;9.190;2023-07-20T01:38:27;7.60;;;2.53;;
3769;SDS011;1900;48.890;9.190;2023-07-20T01:40:54;3.57;;;2.13;;
3769;SDS011;1900;48.890;9.190;2023-07-20T01:43:20;4.20;;;2.27;;
3769;SDS011;1900;48.890;9.190;2023-07-20T01:45:47;5.17;;;2.00;;
3769;SDS011;1900;48.890;9.190;2023-07-20T01:48:12;2.80;;;2.30;;
3769;SDS011;1900;48.890;9.190;2023-07-20T01:50:41;6.73;;;2.50;;
3769;SDS011;1900;48.890;9.190;2023-07-20T01:53:07;6.70;;;2.43;;
3769;SDS011;1900;48.890;9.190;2023-07-20T01:55:33;3.93;;;2.67;;
3769;SDS011;1900;48.890;9.190;2023-07-20T01:57:59;3.57;;;2.00;;
3769;SDS011;1900;48.890;9.190;2023-07-20T02:00:26;3.40;;;2.40;;
3769;SDS011;1900;48.890;9.190;2023-07-20T02:02:51;4.80;;;2.73;;
3769;SDS011;1900;48.890;9.190;2023-07-20T02:05:17;3.67;;;2.43;;
3769;SDS011;1900;48.890;9.190;2023-07-20T02:07:47;4.13;;;2.50;;
3769;SDS011;1900;48.890;9.190;2023-07-20T02:10:17;4.13;;;2.40;;
3769;SDS011;1900;48.890;9.190;2023-07-20T02:12:44;5.00;;;2.57;;
3769;SDS011;1900;48.890;9.190;2023-07-20T02:15:10;4.00;;;3.20;;
3769;SDS011;1900;48.890;9.190;2023-07-20T02:17:35;3.47;;;2.17;;
3769;SDS011;1900;48.890;9.190;2023-07-20T02:20:02;4.13;;;2.30;;
3769;SDS011;1900;48.890;9.190;2023-07-20T02:22:28;4.03;;;2.60;;
3769;SDS011;1900;48.890;9.190;2023-07-20T02:24:54;7.73;;;2.90;;
3769;SDS011;1900;48.890;9.190;2023-07-20T02:27:20;7.13;;;2.43;;
3769;SDS011;1900;48.890;9.190;2023-07-20T02:29:46;3.87;;;2.67;;
3769;SDS011;1900;48.890;9.190;2023-07-20T02:32:11;4.23;;;2.37;;
3769;SDS011;1900;48.890;9.190;2023-07-20T02:34:37;3.50;;;2.70;;
3769;SDS011;1900;48.890;9.190;2023-07-20T02:37:03;3.80;;;2.57;;
3769;SDS011;1900;48.890;9.190;2023-07-20T02:39:29;2.80;;;2.27;;
3769;SDS011;1900;48.890;9.190;2023-07-20T02:41:55;4.27;;;3.10;;
3769;SDS011;1900;48.890;9.190;2023-07-20T02:44:21;4.03;;;2.50;;
3769;SDS011;1900;48.890;9.190;2023-07-20T02:46:47;5.07;;;2.80;;
3769;SDS011;1900;48.890;9.190;2023-07-20T02:49:15;4.13;;;2.83;;
3769;SDS011;1900;48.890;9.190;2023-07-20T02:51:41;4.57;;;2.20;;
3769;SDS011;1900;48.890;9.190;2023-07-20T02:54:07;7.60;;;3.07;;
3769;SDS011;1900;48.890;9.190;2023-07-20T02:56:33;10.53;;;2.80;;
3769;SDS011;1900;48.890;9.190;2023-07-20T02:59:00;3.93;;;2.23;;
3769;SDS011;1900;48.890;9.190;2023-07-20T03:01:26;5.20;;;3.00;;
3769;SDS011;1900;48.890;9.190;2023-07-20T03:03:54;7.00;;;2.97;;
3769;SDS011;1900;48.890;9.190;2023-07-20T03:06:20;5.50;;;2.53;;
3769;SDS011;1900;48.890;9.190;2023-07-20T03:08:49;6.03;;;2.80;;
3769;SDS011;1900;48.890;9.190;2023-07-20T03:11:19;10.70;;;3.23;;
3769;SDS011;1900;48.890;9.190;2023-07-20T03:13:46;3.87;;;2.10;;
3769;SDS011;1900;48.890;9.190;2023-07-20T03:16:13;4.17;;;2.67;;
3769;SDS011;1900;48.890;9.190;2023-07-20T03:18:42;17.23;;;2.77;;
3769;SDS011;1900;48.890;9.190;2023-07-20T03:21:09;5.00;;;2.67;;
3769;SDS011;1900;48.890;9.190;2023-07-20T03:23:38;4.20;;;2.33;;
3769;SDS011;1900;48.890;9.190;2023-07-20T03:26:05;7.23;;;3.40;;
3769;SDS011;1900;48.890;9.190;2023-07-20T03:28:34;4.47;;;2.40;;
3769;SDS011;1900;48.890;9.190;2023-07-20T03:31:03;4.40;;;2.90;;
3769;SDS011;1900;48.890;9.190;2023-07-20T03:33:32;5.13;;;3.03;;
3769;SDS011;1900;48.890;9.190;2023-07-20T03:35:59;3.27;;;2.47;;
3769;SDS011;1900;48.890;9.190;2023-07-20T03:38:25;4.67;;;2.90;;
3769;SDS011;1900;48.890;9.190;2023-07-20T03:40:55;5.33;;;2.50;;
3769;SDS011;1900;48.890;9.190;2023-07-20T03:43:23;4.53;;;2.47;;
3769;SDS011;1900;48.890;9.190;2023-07-20T03:45:49;7.70;;;2.40;;
3769;SDS011;1900;48.890;9.190;2023-07-20T03:48:16;4.63;;;3.00;;
3769;SDS011;1900;48.890;9.190;2023-07-20T03:50:47;3.23;;;2.40;;
3769;SDS011;1900;48.890;9.190;2023-07-20T03:53:14;6.13;;;2.97;;
3769;SDS011;1900;48.890;9.190;2023-07-20T03:55:41;4.60;;;2.30;;
3769;SDS011;1900;48.890;9.190;2023-07-20T03:58:09;5.23;;;2.73;;
3769;SDS011;1900;48.890;9.190;2023-07-20T04:00:35;7.43;;;2.77;;
3769;SDS011;1900;48.890;9.190;2023-07-20T04:03:01;3.07;;;2.40;;
3769;SDS011;1900;48.890;9.190;2023-07-20T04:05:26;5.23;;;2.63;;
3769;SDS011;1900;48.890;9.190;2023-07-20T04:07:52;3.73;;;2.40;;
3769;SDS011;1900;48.890;9.190;2023-07-20T04:10:18;4.30;;;2.53;;
3769;SDS011;1900;48.890;9.190;2023-07-20T04:12:51;7.93;;;2.93;;
3769;SDS011;1900;48.890;9.190;2023-07-20T04:15:16;5.83;;;3.03;;
3769;SDS011;1900;48.890;9.190;2023-07-20T04:17:42;7.23;;;2.27;;
3769;SDS011;1900;48.890;9.190;2023-07-20T04:20:09;4.07;;;2.13;;
3769;SDS011;1900;48.890;9.190;2023-07-20T04:22:35;4.77;;;2.73;;
3769;SDS011;1900;48.890;9.190;2023-07-20T04:25:02;7.70;;;3.10;;
3769;SDS011;1900;48.890;9.190;2023-07-20T04:27:28;4.70;;;2.60;;
3769;SDS011;1900;48.890;9.190;2023-07-20T04:29:54;4.60;;;2.30;;
3769;SDS011;1900;48.890;9.190;2023-07-20T04:32:20;3.23;;;2.27;;
3769;SDS011;1900;48.890;9.190;2023-07-20T04:34:46;7.20;;;2.97;;
3769;SDS011;1900;48.890;9.190;2023-07-20T04:37:11;4.87;;;3.07;;
3769;SDS011;1900;48.890;9.190;2023-07-20T04:39:37;3.20;;;2.30;;
3769;SDS011;1900;48.890;9.190;2023-07-20T04:42:07;4.70;;;2.60;;
3769;SDS011;1900;48.890;9.190;2023-07-20T04:44:33;5.00;;;2.77;;
3769;SDS011;1900;48.890;9.190;2023-07-20T04:46:59;6.67;;;2.57;;
3769;SDS011;1900;48.890;9.190;2023-07-20T04:49:25;2.70;;;2.13;;
3769;SDS011;1900;48.890;9.190;2023-07-20T04:51:51;3.97;;;2.13;;
3769;SDS011;1900;48.890;9.190;2023-07-20T04:54:17;4.57;;;2.40;;
3769;SDS011;1900;48.890;9.190;2023-07-20T04:56:44;4.70;;;2.23;;
3769;SDS011;1900;48.890;9.190;2023-07-20T04:59:11;7.00;;;2.33;;
3769;SDS011;1900;48.890;9.190;2023-07-20T05:01:37;4.03;;;2.20;;
3769;SDS011;1900;48.890;9.190;2023-07-20T05:04:03;4.80;;;2.97;;
3769;SDS011;1900;48.890;9.190;2023-07-20T05:06:29;3.67;;;2.57;;
3769;SDS011;1900;48.890;9.190;2023-07-20T05:08:54;6.10;;;2.50;;
3769;SDS011;1900;48.890;9.190;2023-07-20T05:11:23;3.40;;;2.60;;
3769;SDS011;1900;48.890;9.190;2023-07-20T05:13:49;5.67;;;3.03;;
3769;SDS011;1900;48.890;9.190;2023-07-20T05:16:15;5.30;;;2.73;;
3769;SDS011;1900;48.890;9.190;2023-07-20T05:18:40;4.40;;;2.80;;
3769;SDS011;1900;48.890;9.190;2023-07-20T05:21:07;3.40;;;2.30;;
3769;SDS011;1900;48.890;9.190;2023-07-20T05:23:33;4.60;;;2.73;;
3769;SDS011;1900;48.890;9.190;2023-07-20T05:26:00;5.67;;;2.63;;
3769;SDS011;1900;48.890;9.190;2023-07-20T05:28:26;3.90;;;2.60;;
3769;SDS011;1900;48.890;9.190;2023-07-20T05:30:52;2.70;;;2.20;;
3769;SDS011;1900;48.890;9.190;2023-07-20T05:33:19;3.80;;;2.17;;
3769;SDS011;1900;48.890;9.190;2023-07-20T05:35:47;5.10;;;2.50;;
3769;SDS011;1900;48.890;9.190;2023-07-20T05:38:13;7.03;;;2.40;;
3769;SDS011;1900;48.890;9.190;2023-07-20T05:40:40;7.60;;;2.80;;
3769;SDS011;1900;48.890;9.190;2023-07-20T05:43:08;7.73;;;2.97;;
3769;SDS011;1900;48.890;9.190;2023-07-20T05:45:33;3.30;;;2.30;;
3769;SDS011;1900;48.890;9.190;2023-07-20T05:47:59;5.37;;;2.73;;
3769;SDS011;1900;48.890;9.190;2023-07-20T05:50:25;8.87;;;2.70;;
3769;SDS011;1900;48.890;9.190;2023-07-20T05:52:52;4.47;;;2.73;;
3769;SDS011;1900;48.890;9.190;2023-07-20T05:55:18;6.83;;;2.63;;
3769;SDS011;1900;48.890;9.190;2023-07-20T05:57:44;5.80;;;3.33;;
3769;SDS011;1900;48.890;9.190;2023-07-20T06:00:10;4.10;;;2.87;;
3769;SDS011;1900;48.890;9.190;2023-07-20T06:02:38;4.50;;;2.37;;
3769;SDS011;1900;48.890;9.190;2023-07-20T06:05:04;4.27;;;2.60;;
3769;SDS011;1900;48.890;9.190;2023-07-20T06:07:32;22.83;;;3.20;;
3769;SDS011;1900;48.890;9.190;2023-07-20T06:10:00;5.40;;;2.53;;
3769;SDS011;1900;48.890;9.190;2023-07-20T06:12:26;3.70;;;2.60;;
3769;SDS011;1900;48.890;9.190;2023-07-20T06:14:51;2.87;;;2.50;;
3769;SDS011;1900;48.890;9.190;2023-07-20T06:17:17;4.73;;;3.57;;
3769;SDS011;1900;48.890;9.190;2023-07-20T06:19:43;3.57;;;2.50;;
3769;SDS011;1900;48.890;9.190;2023-07-20T06:22:08;7.00;;;2.70;;
3769;SDS011;1900;48.890;9.190;2023-07-20T06:24:34;3.80;;;2.63;;
3769;SDS011;1900;48.890;9.190;2023-07-20T06:27:00;3.70;;;2.40;;
3769;SDS011;1900;48.890;9.190;2023-07-20T06:29:25;3.80;;;2.27;;
3769;SDS011;1900;48.890;9.190;2023-07-20T06:31:51;4.47;;;2.40;;
3769;SDS011;1900;48.890;9.190;2023-07-20T06:34:17;3.53;;;3.07;;
3769;SDS011;1900;48.890;9.190;2023-07-20T06:36:42;9.70;;;3.20;;
3769;SDS011;1900;48.890;9.190;2023-07-20T06:39:08;5.87;;;3.03;;
3769;SDS011;1900;48.890;9.190;2023-07-20T06:41:34;3.80;;;2.23;;
3769;SDS011;1900;48.890;9.190;2023-07-20T06:43:59;4.27;;;2.53;;
3769;SDS011;1900;48.890;9.190;2023-07-20T06:46:25;6.90;;;2.87;;
3769;SDS011;1900;48.890;9.190;2023-07-20T06:48:51;10.80;;;2.20;;
3769;SDS011;1900;48.890;9.190;2023-07-20T06:51:17;4.10;;;2.70;;
3769;SDS011;1900;48.890;9.190;2023-07-20T06:53:43;3.20;;;2.10;;
3769;SDS011;1900;48.890;9.190;2023-07-20T06:56:08;3.63;;;2.20;;
3769;SDS011;1900;48.890;9.190;2023-07-20T06:58:34;6.83;;;2.80;;
3769;SDS011;1900;48.890;9.190;2023-07-20T07:01:04;4.00;;;2.20;;
3769;SDS011;1900;48.890;9.190;2023-07-20T07:03:33;6.33;;;2.40;;
3769;SDS011;1900;48.890;9.190;2023-07-20T07:05:59;7.50;;;3.00;;
3769;SDS011;1900;48.890;9.190;2023-07-20T07:08:25;4.17;;;3.10;;
3769;SDS011;1900;48.890;9.190;2023-07-20T07:10:52;3.50;;;2.37;;
3769;SDS011;1900;48.890;9.190;2023-07-20T07:13:17;4.97;;;2.60;;
3769;SDS011;1900;48.890;9.190;2023-07-20T07:15:44;3.83;;;2.40;;
3769;SDS011;1900;48.890;9.190;2023-07-20T07:18:10;4.60;;;2.43;;
3769;SDS011;1900;48.890;9.190;2023-07-20T07:20:36;5.37;;;2.40;;
3769;SDS011;1900;48.890;9.190;2023-07-20T07:23:02;5.83;;;2.47;;
3769;SDS011;1900;48.890;9.190;2023-07-20T07:25:28;8.47;;;2.77;;
3769;SDS011;1900;48.890;9.190;2023-07-20T07:27:53;10.13;;;2.63;;
3769;SDS011;1900;48.890;9.190;2023-07-20T07:30:21;10.03;;;3.03;;
3769;SDS011;1900;48.890;9.190;2023-07-20T07:32:47;4.70;;;2.70;;
3769;SDS011;1900;48.890;9.190;2023-07-20T07:35:13;5.33;;;2.47;;
3769;SDS011;1900;48.890;9.190;2023-07-20T07:37:38;8.50;;;2.30;;
3769;SDS011;1900;48.890;9.190;2023-07-20T07:40:04;3.80;;;2.60;;
3769;SDS011;1900;48.890;9.190;2023-07-20T07:42:31;11.93;;;3.37;;
3769;SDS011;1900;48.890;9.190;2023-07-20T07:44:57;10.63;;;3.20;;
3769;SDS011;1900;48.890;9.190;2023-07-20T07:47:23;3.43;;;2.63;;
3769;SDS011;1900;48.890;9.190;2023-07-20T07:49:48;5.30;;;2.03;;
3769;SDS011;1900;48.890;9.190;2023-07-20T07:52:15;6.70;;;2.50;;
3769;SDS011;1900;48.890;9.190;2023-07-20T07:54:41;7.97;;;2.47;;
3769;SDS011;1900;48.890;9.190;2023-07-20T07:57:06;7.63;;;2.50;;
3769;SDS011;1900;48.890;9.190;2023-07-20T07:59:32;3.73;;;2.70;;
3769;SDS011;1900;48.890;9.190;2023-07-20T08:02:02;3.30;;;2.30;;
3769;SDS011;1900;48.890;9.190;2023-07-20T08:04:29;8.30;;;2.80;;
3769;SDS011;1900;48.890;9.190;2023-07-20T08:06:55;9.97;;;2.60;;
3769;SDS011;1900;48.890;9.190;2023-07-20T08:09:21;3.97;;;2.43;;
3769;SDS011;1900;48.890;9.190;2023-07-20T08:11:47;4.47;;;2.30;;
3769;SDS011;1900;48.890;9.190;2023-07-20T08:14:13;5.63;;;3.37;;
3769;SDS011;1900;48.890;9.190;2023-07-20T08:16:39;8.07;;;3.20;;
3769;SDS011;1900;48.890;9.190;2023-07-20T08:19:04;5.10;;;2.40;;
3769;SDS011;1900;48.890;9.190;2023-07-20T08:21:30;5.60;;;2.50;;
3769;SDS011;1900;48.890;9.190;2023-07-20T08:23:56;6.97;;;2.50;;
3769;SDS011;1900;48.890;9.190;2023-07-20T08:26:23;4.63;;;3.50;;
3769;SDS011;1900;48.890;9.190;2023-07-20T08:28:49;4.17;;;2.70;;
3769;SDS011;1900;48.890;9.190;2023-07-20T08:31:15;2.40;;;2.00;;
3769;SDS011;1900;48.890;9.190;2023-07-20T08:33:40;3.77;;;2.30;;
3769;SDS011;1900;48.890;9.190;2023-07-20T08:36:06;3.03;;;2.40;;
3769;SDS011;1900;48.890;9.190;2023-07-20T08:38:32;6.63;;;2.53;;
3769;SDS011;1900;48.890;9.190;2023-07-20T08:41:01;2.90;;;2.10;;
3769;SDS011;1900;48.890;9.190;2023-07-20T08:43:27;3.37;;;2.50;;
3769;SDS011;1900;48.890;9.190;2023-07-20T08:45:53;4.10;;;2.30;;
3769;SDS011;1900;48.890;9.190;2023-07-20T08:48:20;5.90;;;2.43;;
3769;SDS011;1900;48.890;9.190;2023-07-20T08:50:49;8.43;;;2.57;;
3769;SDS011;1900;48.890;9.190;2023-07-20T08:53:16;3.57;;;1.90;;
3769;SDS011;1900;48.890;9.190;2023-07-20T08:55:43;7.20;;;2.33;;
3769;SDS011;1900;48.890;9.190;2023-07-20T08:58:10;5.03;;;2.03;;
3769;SDS011;1900;48.890;9.190;2023-07-20T09:00:39;5.37;;;2.30;;
3769;SDS011;1900;48.890;9.190;2023-07-20T09:03:07;3.00;;;2.10;;
3769;SDS011;1900;48.890;9.190;2023-07-20T09:05:33;4.40;;;2.50;;
3769;SDS011;1900;48.890;9.190;2023-07-20T09:08:00;6.07;;;2.60;;
3769;SDS011;1900;48.890;9.190;2023-07-20T09:10:29;6.90;;;2.50;;
3769;SDS011;1900;48.890;9.190;2023-07-20T09:12:55;5.53;;;2.60;;
3769;SDS011;1900;48.890;9.190;2023-07-20T09:15:21;5.30;;;2.23;;
3769;SDS011;1900;48.890;9.190;2023-07-20T09:17:48;3.60;;;2.40;;
3769;SDS011;1900;48.890;9.190;2023-07-20T09:20:15;5.33;;;2.33;;
3769;SDS011;1900;48.890;9.190;2023-07-20T09:22:42;2.87;;;2.10;;
3769;SDS011;1900;48.890;9.190;2023-07-20T09:25:12;3.27;;;2.40;;
3769;SDS011;1900;48.890;9.190;2023-07-20T09:27:40;4.90;;;2.17;;
3769;SDS011;1900;48.890;9.190;2023-07-20T09:30:10;4.63;;;2.33;;
3769;SDS011;1900;48.890;9.190;2023-07-20T09:32:45;2.87;;;2.13;;
3769;SDS011;1900;48.890;9.190;2023-07-20T09:35:13;2.37;;;1.90;;
3769;SDS011;1900;48.890;9.190;2023-07-20T09:37:46;4.80;;;1.90;;
3769;SDS011;1900;48.890;9.190;2023-07-20T09:40:17;4.53;;;1.93;;
3769;SDS011;1900;48.890;9.190;2023-07-20T09:42:43;2.90;;;1.70;;
3769;SDS011;1900;48.890;9.190;2023-07-20T09:45:10;2.10;;;1.90;;
3769;SDS011;1900;48.890;9.190;2023-07-20T09:47:36;6.03;;;2.00;;
3769;SDS011;1900;48.890;9.190;2023-07-20T09:50:03;2.83;;;2.00;;
3769;SDS011;1900;48.890;9.190;2023-07-20T09:52:30;1.97;;;1.70;;
3769;SDS011;1900;48.890;9.190;2023-07-20T09:54:57;3.30;;;2.00;;
3769;SDS011;1900;48.890;9.190;2023-07-20T09:57:23;5.43;;;2.17;;
3769;SDS011;1900;48.890;9.190;2023-07-20T09:59:51;5.80;;;1.97;;
3769;SDS011;1900;48.890;9.190;2023-07-20T10:02:20;2.67;;;1.90;;
3769;SDS011;1900;48.890;9.190;2023-07-20T10:04:51;3.20;;;1.70;;
3769;SDS011;1900;48.890;9.190;2023-07-20T10:07:18;4.80;;;2.10;;
3769;SDS011;1900;48.890;9.190;2023-07-20T10:09:48;2.70;;;1.67;;
3769;SDS011;1900;48.890;9.190;2023-07-20T10:12:15;4.50;;;2.00;;
3769;SDS011;1900;48.890;9.190;2023-07-20T10:14:43;3.20;;;1.70;;
3769;SDS011;1900;48.890;9.190;2023-07-20T10:17:19;4.40;;;2.33;;
3769;SDS011;1900;48.890;9.190;2023-07-20T10:19:50;2.40;;;1.70;;
3769;SDS011;1900;48.890;9.190;2023-07-20T10:22:19;4.23;;;2.10;;
3769;SDS011;1900;48.890;9.190;2023-07-20T10:24:51;3.23;;;2.00;;
3769;SDS011;1900;48.890;9.190;2023-07-20T10:27:19;3.00;;;2.07;;
3769;SDS011;1900;48.890;9.190;2023-07-20T10:29:46;3.20;;;2.00;;
3769;SDS011;1900;48.890;9.190;2023-07-20T10:32:13;3.60;;;1.80;;
3769;SDS011;1900;48.890;9.190;2023-07-20T10:34:39;8.33;;;2.40;;
3769;SDS011;1900;48.890;9.190;2023-07-20T10:37:05;3.40;;;2.90;;
3769;SDS011;1900;48.890;9.190;2023-07-20T10:39:31;2.67;;;1.93;;
3769;SDS011;1900;48.890;9.190;2023-07-20T10:44:32;4.20;;;2.40;;
3769;SDS011;1900;48.890;9.190;2023-07-20T10:47:02;5.73;;;3.70;;
3769;SDS011;1900;48.890;9.190;2023-07-20T10:49:33;4.23;;;2.30;;
3769;SDS011;1900;48.890;9.190;2023-07-20T10:52:03;4.43;;;2.70;;
3769;SDS011;1900;48.890;9.190;2023-07-20T10:56:56;3.40;;;1.80;;
3769;SDS011;1900;48.890;9.190;2023-07-20T11:01:48;2.07;;;1.60;;
3769;SDS011;1900;48.890;9.190;2023-07-20T11:04:15;2.93;;;1.50;;
3769;SDS011;1900;48.890;9.190;2023-07-20T11:06:44;1.70;;;1.50;;
3769;SDS011;1900;48.890;9.190;2023-07-20T11:09:22;4.97;;;1.87;;
3769;SDS011;1900;48.890;9.190;2023-07-20T11:11:50;3.30;;;1.40;;
3769;SDS011;1900;48.890;9.190;2023-07-20T11:14:44;6.07;;;2.00;;
3769;SDS011;1900;48.890;9.190;2023-07-20T11:17:19;3.93;;;1.80;;
3769;SDS011;1900;48.890;9.190;2023-07-20T11:19:54;3.63;;;1.40;;
3769;SDS011;1900;48.890;9.190;2023-07-20T11:22:21;3.80;;;1.70;;
3769;SDS011;1900;48.890;9.190;2023-07-20T11:24:47;4.63;;;1.50;;
3769;SDS011;1900;48.890;9.190;2023-07-20T11:27:14;1.77;;;1.53;;
3769;SDS011;1900;48.890;9.190;2023-07-20T11:29:40;4.30;;;1.50;;
3769;SDS011;1900;48.890;9.190;2023-07-20T11:32:06;6.60;;;2.00;;
3769;SDS011;1900;48.890;9.190;2023-07-20T11:34:33;3.13;;;2.07;;
3769;SDS011;1900;48.890;9.190;2023-07-20T11:36:59;2.00;;;1.60;;
3769;SDS011;1900;48.890;9.190;2023-07-20T11:39:26;2.67;;;1.43;;
3769;SDS011;1900;48.890;9.190;2023-07-20T11:41:53;2.17;;;1.67;;
3769;SDS011;1900;48.890;9.190;2023-07-20T11:44:21;3.90;;;1.77;;
3769;SDS011;1900;48.890;9.190;2023-07-20T11:47:03;2.60;;;1.57;;
3769;SDS011;1900;48.890;9.190;2023-07-20T11:49:41;1.80;;;1.37;;
3769;SDS011;1900;48.890;9.190;2023-07-20T11:52:16;3.40;;;1.50;;
3769;SDS011;1900;48.890;9.190;2023-07-20T11:54:42;3.33;;;1.70;;
3769;SDS011;1900;48.890;9.190;2023-07-20T11:57:18;6.70;;;1.73;;
3769;SDS011;1900;48.890;9.190;2023-07-20T11:59:54;2.17;;;1.43;;
3769;SDS011;1900;48.890;9.190;2023-07-20T12:02:22;4.00;;;1.60;;
3769;SDS011;1900;48.890;9.190;2023-07-20T12:04:51;2.00;;;1.50;;
3769;SDS011;1900;48.890;9.190;2023-07-20T12:07:18;3.73;;;1.40;;
3769;SDS011;1900;48.890;9.190;2023-07-20T12:09:44;3.50;;;1.97;;
3769;SDS011;1900;48.890;9.190;2023-07-20T12:12:27;3.67;;;1.67;;
3769;SDS011;1900;48.890;9.190;2023-07-20T12:14:53;3.63;;;1.80;;
3769;SDS011;1900;48.890;9.190;2023-07-20T12:17:19;1.80;;;1.70;;
3769;SDS011;1900;48.890;9.190;2023-07-20T12:19:45;2.43;;;1.70;;
3769;SDS011;1900;48.890;9.190;2023-07-20T12:22:11;5.77;;;2.20;;
3769;SDS011;1900;48.890;9.190;2023-07-20T12:24:37;4.10;;;1.93;;
3769;SDS011;1900;48.890;9.190;2023-07-20T12:27:03;3.23;;;1.50;;
3769;SDS011;1900;48.890;9.190;2023-07-20T12:29:29;1.77;;;1.40;;
3769;SDS011;1900;48.890;9.190;2023-07-20T12:31:56;1.60;;;1.50;;
3769;SDS011;1900;48.890;9.190;2023-07-20T12:34:22;5.30;;;2.20;;
3769;SDS011;1900;48.890;9.190;2023-07-20T12:36:47;12.50;;;3.90;;
3769;SDS011;1900;48.890;9.190;2023-07-20T12:39:13;3.40;;;2.50;;
3769;SDS011;1900;48.890;9.190;2023-07-20T12:41:39;8.97;;;1.90;;
3769;SDS011;1900;48.890;9.190;2023-07-20T12:44:05;2.57;;;1.20;;
3769;SDS011;1900;48.890;9.190;2023-07-20T12:46:30;2.43;;;1.73;;
3769;SDS011;1900;48.890;9.190;2023-07-20T12:49:00;4.63;;;2.00;;
3769;SDS011;1900;48.890;9.190;2023-07-20T12:51:25;2.90;;;1.87;;
3769;SDS011;1900;48.890;9.190;2023-07-20T12:53:51;2.87;;;1.50;;
3769;SDS011;1900;48.890;9.190;2023-07-20T12:56:17;2.60;;;2.10;;
3769;SDS011;1900;48.890;9.190;2023-07-20T12:58:42;3.10;;;2.23;;
3769;SDS011;1900;48.890;9.190;2023-07-20T13:01:08;3.10;;;2.00;;
3769;SDS011;1900;48.890;9.190;2023-07-20T13:03:33;2.17;;;1.67;;
3769;SDS011;1900;48.890;9.190;2023-07-20T13:05:59;2.73;;;1.67;;
3769;SDS011;1900;48.890;9.190;2023-07-20T13:08:25;3.83;;;1.90;;
3769;SDS011;1900;48.890;9.190;2023-07-20T13:10:52;2.20;;;1.90;;
3769;SDS011;1900;48.890;9.190;2023-07-20T13:13:17;2.10;;;1.80;;
3769;SDS011;1900;48.890;9.190;2023-07-20T13:15:44;2.27;;;1.60;;
3769;SDS011;1900;48.890;9.190;2023-07-20T13:18:10;2.03;;;1.60;;
3769;SDS011;1900;48.890;9.190;2023-07-20T13:20:36;2.80;;;1.67;;
3769;SDS011;1900;48.890;9.190;2023-07-20T13:23:02;2.23;;;1.70;;
3769;SDS011;1900;48.890;9.190;2023-07-20T13:25:27;2.73;;;1.80;;
3769;SDS011;1900;48.890;9.190;2023-07-20T13:27:53;2.27;;;1.50;;
3769;SDS011;1900;48.890;9.190;2023-07-20T13:30:19;3.63;;;1.50;;
3769;SDS011;1900;48.890;9.190;2023-07-20T13:32:47;1.90;;;1.42;;
3769;SDS011;1900;48.890;9.190;2023-07-20T13:35:13;5.63;;;1.70;;
3769;SDS011;1900;48.890;9.190;2023-07-20T13:37:39;2.00;;;1.63;;
3769;SDS011;1900;48.890;9.190;2023-07-20T13:40:05;2.33;;;1.35;;
3769;SDS011;1900;48.890;9.190;2023-07-20T13:42:32;2.28;;;1.60;;
3769;SDS011;1900;48.890;9.190;2023-07-20T13:44:58;2.60;;;1.47;;
3769;SDS011;1900;48.890;9.190;2023-07-20T13:47:24;4.80;;;1.40;;
3769;SDS011;1900;48.890;9.190;2023-07-20T13:49:51;3.47;;;2.70;;
3769;SDS011;1900;48.890;9.190;2023-07-20T13:52:16;3.70;;;1.83;;
3769;SDS011;1900;48.890;9.190;2023-07-20T13:54:42;2.20;;;2.00;;
3769;SDS011;1900;48.890;9.190;2023-07-20T13:57:08;1.50;;;1.37;;
3769;SDS011;1900;48.890;9.190;2023-07-20T13:59:33;1.70;;;1.60;;
3769;SDS011;1900;48.890;9.190;2023-07-20T14:01:59;2.20;;;1.80;;
3769;SDS011;1900;48.890;9.190;2023-07-20T14:04:25;1.70;;;1.60;;
3769;SDS011;1900;48.890;9.190;2023-07-20T14:06:50;1.70;;;1.42;;
3769;SDS011;1900;48.890;9.190;2023-07-20T14:09:16;3.10;;;2.13;;
3769;SDS011;1900;48.890;9.190;2023-07-20T14:11:45;1.65;;;1.55;;
3769;SDS011;1900;48.890;9.190;2023-07-20T14:14:10;1.40;;;1.30;;
3769;SDS011;1900;48.890;9.190;2023-07-20T14:16:36;2.00;;;1.37;;
3769;SDS011;1900;48.890;9.190;2023-07-20T14:19:01;3.60;;;1.60;;
3769;SDS011;1900;48.890;9.190;2023-07-20T14:21:29;3.10;;;1.63;;
3769;SDS011;1900;48.890;9.190;2023-07-20T14:23:56;2.93;;;1.90;;
3769;SDS011;1900;48.890;9.190;2023-07-20T14:26:22;1.48;;;1.38;;
3769;SDS011;1900;48.890;9.190;2023-07-20T14:28:48;4.07;;;1.50;;
3769;SDS011;1900;48.890;9.190;2023-07-20T14:31:14;1.87;;;1.30;;
3769;SDS011;1900;48.890;9.190;2023-07-20T14:33:40;1.83;;;1.48;;
3769;SDS011;1900;48.890;9.190;2023-07-20T14:36:06;2.13;;;1.55;;
3769;SDS011;1900;48.890;9.190;2023-07-20T14:38:33;1.90;;;1.55;;
3769;SDS011;1900;48.890;9.190;2023-07-20T14:40:59;1.90;;;1.33;;
3769;SDS011;1900;48.890;9.190;2023-07-20T14:43:25;2.53;;;1.70;;
3769;SDS011;1900;48.890;9.190;2023-07-20T14:45:51;2.05;;;1.40;;
3769;SDS011;1900;48.890;9.190;2023-07-20T14:48:17;1.88;;;1.48;;
3769;SDS011;1900;48.890;9.190;2023-07-20T14:50:42;2.10;;;1.50;;
3769;SDS011;1900;48.890;9.190;2023-07-20T14:53:11;2.35;;;1.67;;
3769;SDS011;1900;48.890;9.190;2023-07-20T14:55:37;2.33;;;1.70;;
3769;SDS011;1900;48.890;9.190;2023-07-20T14:58:03;2.42;;;1.65;;
3769;SDS011;1900;48.890;9.190;2023-07-20T15:00:28;7.60;;;2.35;;
3769;SDS011;1900;48.890;9.190;2023-07-20T15:02:55;4.63;;;1.67;;
3769;SDS011;1900;48.890;9.190;2023-07-20T15:05:21;1.98;;;1.67;;
3769;SDS011;1900;48.890;9.190;2023-07-20T15:07:48;1.70;;;1.60;;
3769;SDS011;1900;48.890;9.190;2023-07-20T15:10:14;2.20;;;1.35;;
3769;SDS011;1900;48.890;9.190;2023-07-20T15:12:40;1.75;;;1.50;;
3769;SDS011;1900;48.890;9.190;2023-07-20T15:15:10;2.47;;;1.10;;
3769;SDS011;1900;48.890;9.190;2023-07-20T15:17:40;3.00;;;1.73;;
3769;SDS011;1900;48.890;9.190;2023-07-20T15:20:08;1.50;;;1.40;;
3769;SDS011;1900;48.890;9.190;2023-07-20T15:22:36;1.60;;;1.50;;
3769;SDS011;1900;48.890;9.190;2023-07-20T15:25:03;2.53;;;1.30;;
3769;SDS011;1900;48.890;9.190;2023-07-20T15:27:29;2.25;;;1.75;;
3769;SDS011;1900;48.890;9.190;2023-07-20T15:29:55;1.92;;;1.40;;
3769;SDS011;1900;48.890;9.190;2023-07-20T15:32:21;1.40;;;1.30;;